Time;durP1;ratioP1;P1;durP2;ratioP2;P2;SDS_P1;SDS_P2;PMS_P1;PMS_P2;Temp;Humidity;BMP_temperature;BMP_pressure;BME280_temperature;BME280_humidity;BME280_pressure;Samples;Min_cycle;Max_cycle;Signal;HPM_P1;HPM_P2
2022/06/22 00:01:38;;;;;;;0.75;0.50;;;;;;;31.89;28.39;101566.34;4932541;28;20075;-75
2022/06/22 00:04:19;;;;;;;0.47;0.40;;;;;;;31.88;29.67;101565.47;4928756;29;20111;-74
2022/06/22 00:06:54;;;;;;;0.50;0.40;;;;;;;31.87;29.74;101563.75;4928368;29;20055;-73
2022/06/22 00:09:27;;;;;;;0.60;0.50;;;;;;;31.82;30.41;101557.75;4925953;29;20047;-74
2022/06/22 00:12:00;;;;;;;0.75;0.40;;;;;;;31.90;29.39;101560.03;4920508;29;20367;-74
2022/06/22 00:14:36;;;;;;;0.77;0.40;;;;;;;31.94;28.72;101553.59;4928938;29;20139;-73
2022/06/22 00:17:05;;;;;;;1.95;0.50;;;;;;;31.94;30.13;101562.50;4922185;29;20111;-75
2022/06/22 00:19:41;;;;;;;1.38;0.40;;;;;;;31.92;29.89;101556.34;4938107;29;20174;-73
2022/06/22 00:22:19;;;;;;;0.93;0.55;;;;;;;31.88;30.67;101554.75;4922533;29;20051;-74
2022/06/22 00:24:56;;;;;;;0.40;0.40;;;;;;;31.82;31.22;101554.16;4930093;29;20053;-74
2022/06/22 00:27:30;;;;;;;2.25;0.50;;;;;;;31.75;30.76;101542.91;4930268;29;20047;-74
2022/06/22 00:30:27;;;;;;;1.20;0.50;;;;;;;31.73;31.18;101550.16;4931049;29;20094;-73
2022/06/22 00:33:02;;;;;;;0.70;0.40;;;;;;;31.69;29.63;101545.88;4939816;29;20051;-75
2022/06/22 00:35:52;;;;;;;3.30;0.40;;;;;;;31.61;30.11;101550.69;4933906;29;20067;-74
2022/06/22 00:38:24;;;;;;;1.02;0.47;;;;;;;31.45;29.83;101539.81;4923781;29;20056;-74
2022/06/22 00:40:56;;;;;;;0.35;0.35;;;;;;;31.37;28.73;101537.47;4935979;29;20056;-74
2022/06/22 00:43:26;;;;;;;;;;;;;;;31.24;30.84;101538.97;4924695;29;20052;-72
2022/06/22 00:45:56;;;;;;;0.82;0.50;;;;;;;31.15;29.76;101536.72;4931893;29;19922;-72
2022/06/22 00:48:30;;;;;;;1.45;0.30;;;;;;;31.09;30.64;101525.34;4929479;29;20099;-74
2022/06/22 00:51:06;;;;;;;0.73;0.40;;;;;;;31.08;31.12;101531.66;4924829;29;20103;-75
2022/06/22 00:53:39;;;;;;;1.70;0.28;;;;;;;31.01;29.73;101527.47;4932239;29;20055;-73
2022/06/22 00:56:18;;;;;;;0.82;0.40;;;;;;;30.95;29.90;101543.81;4930453;29;20051;-74
2022/06/22 00:58:57;;;;;;;1.13;0.28;;;;;;;30.75;30.96;101528.59;4927790;29;20059;-73
2022/06/22 01:01:33;;;;;;;0.20;0.20;;;;;;;30.69;31.56;101529.75;4928548;28;20601;-75
2022/06/22 01:04:08;;;;;;;0.98;0.20;;;;;;;30.60;30.02;101519.41;4932123;29;20047;-73
2022/06/22 01:06:45;;;;;;;0.50;0.25;;;;;;;30.52;29.88;101526.91;4926294;29;20414;-74
2022/06/22 01:09:25;;;;;;;1.65;0.50;;;;;;;30.50;31.50;101528.75;4939599;29;20138;-74
2022/06/22 01:12:22;;;;;;;0.65;0.40;;;;;;;30.45;32.02;101525.44;4924002;29;20056;-72
2022/06/22 01:15:03;;;;;;;1.15;0.15;;;;;;;30.38;29.52;101529.28;4935268;29;20066;-71
2022/06/22 01:17:38;;;;;;;0.45;0.30;;;;;;;30.33;31.24;101528.59;4918907;29;20075;-71
2022/06/22 01:20:14;;;;;;;1.30;0.50;;;;;;;30.29;33.06;101524.31;4918941;29;20123;-71
2022/06/22 01:23:08;;;;;;;0.50;0.32;;;;;;;30.22;33.02;101524.53;4917820;29;20048;-72
2022/06/22 01:25:53;;;;;;;0.30;0.30;;;;;;;30.19;31.95;101524.66;4913801;29;20056;-71
2022/06/22 01:28:24;;;;;;;0.32;0.30;;;;;;;30.20;32.51;101520.19;4923752;29;20039;-72
2022/06/22 01:30:56;;;;;;;1.58;0.20;;;;;;;30.16;33.09;101524.78;4919854;29;20059;-72
2022/06/22 01:33:33;;;;;;;1.75;0.30;;;;;;;30.10;31.29;101513.47;4923772;29;20459;-73
2022/06/22 01:36:07;;;;;;;1.13;0.30;;;;;;;29.94;31.57;101518.53;4941542;29;20058;-73
2022/06/22 01:38:39;;;;;;;0.20;0.20;;;;;;;29.88;32.58;101518.81;4929134;29;20110;-72
2022/06/22 01:41:18;;;;;;;;;;;;;;;29.81;34.14;101519.03;4932183;29;20501;-73
2022/06/22 01:43:53;;;;;;;0.77;0.30;;;;;;;29.81;34.48;101519.03;4927817;29;19984;-74
2022/06/22 01:46:36;;;;;;;1.08;0.30;;;;;;;29.82;34.56;101520.75;4933712;29;20059;-75
2022/06/22 01:49:13;;;;;;;0.50;0.20;;;;;;;29.74;33.26;101516.69;4929600;29;20095;-73
2022/06/22 01:51:47;;;;;;;0.50;0.22;;;;;;;29.67;34.20;101520.50;4922761;29;20047;-74
2022/06/22 01:54:23;;;;;;;0.52;0.30;;;;;;;29.61;34.78;101516.25;4932134;29;20050;-73
2022/06/22 01:56:55;;;;;;;0.55;0.30;;;;;;;29.58;34.19;101517.22;4925332;29;20116;-74
2022/06/22 01:59:41;;;;;;;1.75;0.40;;;;;;;29.51;35.21;101521.06;4933595;29;20102;-75
2022/06/22 02:02:14;;;;;;;3.70;0.30;;;;;;;29.47;34.21;101513.22;4939193;28;20052;-76
2022/06/22 02:04:47;;;;;;;0.30;0.30;;;;;;;29.43;34.35;101517.78;4931576;29;20059;-74
2022/06/22 02:10:29;;;;;;;0.88;0.30;;;;;;;29.32;34.09;101517.31;4930593;29;20054;-75
2022/06/22 02:13:05;;;;;;;0.32;0.30;;;;;;;29.23;35.20;101521.22;4930946;29;20501;-73
2022/06/22 02:15:51;;;;;;;0.30;0.20;;;;;;;29.17;35.41;101521.44;4943153;29;20492;-72
2022/06/22 02:18:25;;;;;;;0.50;0.30;;;;;;;29.14;35.46;101518.88;4915981;29;20552;-72
2022/06/22 02:20:54;;;;;;;0.95;0.30;;;;;;;29.07;35.56;101517.31;4918169;29;20059;-74
2022/06/22 02:23:28;;;;;;;0.45;0.45;;;;;;;29.07;36.15;101519.97;4923052;29;20566;-73
2022/06/22 02:26:12;;;;;;;2.22;0.50;;;;;;;28.99;38.39;101522.91;4936329;29;20055;-74
2022/06/22 02:28:42;;;;;;;1.52;0.45;;;;;;;28.92;36.55;101514.28;4931558;29;20051;-72
2022/06/22 02:31:12;;;;;;;1.42;0.40;;;;;;;28.91;38.42;101519.63;4931666;29;20524;-74
2022/06/22 02:33:45;;;;;;;1.30;0.30;;;;;;;28.83;37.62;101518.13;4935500;29;20044;-74
2022/06/22 02:36:15;;;;;;;1.05;0.30;;;;;;;28.78;36.47;101513.88;4923577;29;20142;-74
2022/06/22 02:38:46;;;;;;;1.75;0.40;;;;;;;28.74;36.81;101517.56;4926899;29;20044;-74
2022/06/22 02:46:50;;;;;;;1.38;0.40;;;;;;;28.56;36.98;101519.06;4928788;29;20448;-74
2022/06/22 02:49:26;;;;;;;0.75;0.43;;;;;;;28.48;38.53;101516.66;4916345;29;20067;-74
2022/06/22 02:51:56;;;;;;;1.75;0.50;;;;;;;28.42;37.29;101523.03;4931201;29;20053;-72
2022/06/22 02:54:33;;;;;;;1.25;0.50;;;;;;;28.37;38.67;101522.31;4931552;29;20058;-74
2022/06/22 02:57:14;;;;;;;1.13;0.50;;;;;;;28.32;38.18;101523.38;4931964;29;20123;-73
2022/06/22 02:59:44;;;;;;;1.33;0.50;;;;;;;28.25;37.89;101524.50;4929158;29;20052;-74
2022/06/22 03:02:26;;;;;;;0.98;0.77;;;;;;;28.15;37.83;101524.81;4932088;28;20055;-75
2022/06/22 03:04:57;;;;;;;0.88;0.80;;;;;;;28.05;38.32;101528.66;4923417;29;20051;-76
2022/06/22 03:07:27;;;;;;;0.60;0.50;;;;;;;27.99;38.64;101539.47;4930856;29;20103;-76
2022/06/22 03:09:56;;;;;;;1.48;0.50;;;;;;;27.91;38.69;101528.22;4928998;29;20055;-77
2022/06/22 03:12:24;;;;;;;1.95;0.50;;;;;;;27.83;39.32;101535.50;4922820;29;20048;-74
2022/06/22 03:14:56;;;;;;;0.75;0.50;;;;;;;27.76;39.56;101530.41;4928968;29;20569;-77
2022/06/22 03:17:33;;;;;;;1.92;0.50;;;;;;;27.68;39.65;101534.19;4934316;29;20044;-77
2022/06/22 03:20:06;;;;;;;1.33;0.60;;;;;;;27.59;40.49;101524.69;4931684;29;20063;-76
2022/06/22 03:22:37;;;;;;;1.33;0.75;;;;;;;27.47;39.91;101517.97;4928371;29;20115;-75
2022/06/22 03:25:13;;;;;;;1.50;0.67;;;;;;;27.39;40.33;101527.06;4928458;29;20062;-76
2022/06/22 03:27:45;;;;;;;2.95;0.75;;;;;;;27.27;40.29;101517.66;4922574;29;20055;-76
2022/06/22 03:30:16;;;;;;;0.90;0.60;;;;;;;27.19;41.05;101525.81;4921087;29;20050;-75
2022/06/22 03:32:51;;;;;;;1.27;0.50;;;;;;;27.07;40.80;101518.16;4930430;29;20055;-76
2022/06/22 03:35:26;;;;;;;1.25;0.50;;;;;;;26.98;41.04;101526.38;4934351;29;20457;-74
2022/06/22 03:38:01;;;;;;;0.85;0.50;;;;;;;26.88;41.12;101525.75;4930578;29;20055;-74
2022/06/22 03:40:34;;;;;;;0.63;0.50;;;;;;;26.78;41.11;101525.13;4930651;29;20661;-75
2022/06/22 03:43:11;;;;;;;0.82;0.60;;;;;;;26.67;41.50;101519.22;4930043;29;20040;-76
2022/06/22 03:45:44;;;;;;;1.55;0.60;;;;;;;26.57;41.94;101525.66;4931307;29;20044;-75
2022/06/22 03:48:18;;;;;;;2.58;0.50;;;;;;;26.46;42.10;101518.81;4928116;29;20047;-77
2022/06/22 03:50:52;;;;;;;0.88;0.60;;;;;;;26.36;42.50;101522.59;4917524;29;20491;-77
2022/06/22 03:53:23;;;;;;;1.00;0.77;;;;;;;26.26;42.53;101510.47;4920425;29;20052;-75
2022/06/22 03:55:56;;;;;;;2.33;0.63;;;;;;;26.18;42.68;101512.41;4930925;29;20597;-77
2022/06/22 03:58:25;;;;;;;1.00;0.65;;;;;;;26.07;42.92;101515.34;4920918;29;20055;-76
2022/06/22 04:00:55;;;;;;;2.60;1.20;;;;;;;25.97;43.18;101508.47;4920587;29;20052;-76
2022/06/22 04:03:25;;;;;;;1.63;0.60;;;;;;;25.88;43.62;101509.56;4923593;28;20056;-75
2022/06/22 04:05:57;;;;;;;3.45;0.60;;;;;;;25.77;44.00;101514.19;4919298;29;20526;-76
2022/06/22 04:08:30;;;;;;;0.40;0.30;;;;;;;25.67;44.02;101521.47;4923887;29;20047;-76
2022/06/22 04:11:03;;;;;;;0.88;0.60;;;;;;;25.57;44.49;101519.94;4931409;29;20482;-79
2022/06/22 04:13:36;;;;;;;1.95;0.63;;;;;;;25.44;44.65;101520.16;4923184;29;20497;-75
2022/06/22 04:16:10;;;;;;;1.17;0.57;;;;;;;25.37;44.40;101525.63;4941590;29;20667;-75
2022/06/22 04:18:46;;;;;;;0.95;0.45;;;;;;;25.28;45.23;101524.88;4933815;29;20039;-76
2022/06/22 04:21:22;;;;;;;1.65;0.50;;;;;;;25.18;44.95;101525.97;4931807;29;20040;-76
2022/06/22 04:23:55;;;;;;;1.15;0.50;;;;;;;25.08;45.32;101521.72;4934734;29;20707;-79
2022/06/22 04:26:27;;;;;;;0.82;0.60;;;;;;;25.03;44.98;101528.88;4933811;29;20051;-76
2022/06/22 04:29:02;;;;;;;;;;;;;;;24.96;45.21;101537.84;4928829;29;20043;-76
2022/06/22 04:31:36;;;;;;;1.75;0.50;;;;;;;24.91;45.48;101535.28;4935965;29;19930;-75
2022/06/22 04:34:09;;;;;;;2.13;0.60;;;;;;;24.84;45.19;101537.16;4943932;29;20056;-75
2022/06/22 04:36:43;;;;;;;0.70;0.40;;;;;;;24.77;45.67;101538.16;4940900;29;20650;-77
2022/06/22 04:39:18;;;;;;;3.70;0.60;;;;;;;24.72;45.82;101537.38;4934754;29;20473;-74
2022/06/22 04:41:47;;;;;;;0.63;0.50;;;;;;;24.65;45.66;101538.38;4932241;29;20107;-76
2022/06/22 04:44:19;;;;;;;2.25;0.52;;;;;;;24.56;45.42;101543.81;4935193;29;20103;-75
2022/06/22 04:46:48;;;;;;;;;;;;;;;24.54;45.86;101545.59;4940893;29;20068;-77
2022/06/22 04:49:23;;;;;;;1.17;0.45;;;;;;;24.46;45.33;101549.22;4933660;29;20312;-74
2022/06/22 04:51:56;;;;;;;1.58;0.90;;;;;;;24.42;45.61;101551.94;4925359;29;20050;-73
2022/06/22 04:54:28;;;;;;;1.10;0.55;;;;;;;24.36;46.26;101547.59;4933611;29;20047;-74
2022/06/22 04:56:59;;;;;;;1.17;0.50;;;;;;;24.31;46.49;101553.88;4934667;29;20059;-74
2022/06/22 04:59:28;;;;;;;0.85;0.50;;;;;;;24.24;46.78;101547.78;4934937;29;20451;-74
2022/06/22 05:01:59;;;;;;;1.85;0.45;;;;;;;24.16;46.42;101550.53;4936605;28;20122;-75
2022/06/22 05:04:32;;;;;;;3.78;0.50;;;;;;;24.10;47.58;101552.38;4929958;29;20052;-74
2022/06/22 05:07:08;;;;;;;0.63;0.50;;;;;;;24.02;47.72;101548.06;4934716;29;20116;-75
2022/06/22 05:09:43;;;;;;;0.68;0.50;;;;;;;23.94;47.71;101552.63;4932589;29;20150;-75
2022/06/22 05:12:15;;;;;;;1.58;0.43;;;;;;;23.87;47.53;101550.94;4928006;29;20047;-74
2022/06/22 05:14:45;;;;;;;1.63;0.45;;;;;;;23.79;47.27;101555.44;4930602;29;20198;-75
2022/06/22 05:17:20;;;;;;;1.23;0.50;;;;;;;23.74;47.33;101558.16;4933379;29;20052;-76
2022/06/22 05:19:55;;;;;;;0.40;0.30;;;;;;;23.66;47.54;101561.75;4932105;29;20043;-75
2022/06/22 05:22:23;;;;;;;3.15;0.98;;;;;;;23.59;46.47;101560.94;4932544;29;20402;-75
2022/06/22 05:24:56;;;;;;;1.00;0.50;;;;;;;23.53;47.51;101563.66;4931026;29;20378;-75
2022/06/22 05:27:29;;;;;;;1.15;0.40;;;;;;;23.50;47.71;101559.28;4933377;29;20480;-75
2022/06/22 05:30:03;;;;;;;2.45;0.40;;;;;;;23.46;46.68;101562.00;4929831;29;20512;-75
2022/06/22 05:32:34;;;;;;;1.55;0.50;;;;;;;23.40;46.83;101569.06;4924643;29;20091;-75
2022/06/22 05:35:09;;;;;;;0.90;0.50;;;;;;;23.38;45.83;101567.34;4940506;29;20044;-74
2022/06/22 05:37:42;;;;;;;0.40;0.30;;;;;;;23.34;46.30;101570.88;4933675;29;20103;-75
2022/06/22 05:40:12;;;;;;;1.67;0.30;;;;;;;23.31;46.44;101578.84;4931613;29;20506;-75
2022/06/22 05:42:41;;;;;;;1.50;0.40;;;;;;;23.26;46.60;101570.97;4933647;29;20477;-75
2022/06/22 05:45:17;;;;;;;0.68;0.40;;;;;;;23.22;46.33;101563.97;4933397;29;20060;-75
2022/06/22 05:47:46;;;;;;;1.10;0.35;;;;;;;23.16;45.45;101567.56;4934528;29;20139;-73
2022/06/22 05:50:27;;;;;;;1.33;0.40;;;;;;;23.13;46.49;101569.34;4934117;29;20048;-73
2022/06/22 05:53:00;;;;;;;1.75;0.52;;;;;;;23.09;46.76;101564.97;4935067;29;20062;-74
2022/06/22 05:55:33;;;;;;;1.85;0.40;;;;;;;22.99;46.56;101556.28;4928152;29;20048;-74
2022/06/22 05:58:07;;;;;;;1.30;0.40;;;;;;;22.99;45.93;101561.56;4927817;29;20048;-75
2022/06/22 06:00:44;;;;;;;2.47;0.43;;;;;;;22.91;46.61;101561.59;4931060;29;20510;-74
2022/06/22 06:03:31;;;;;;;2.20;0.70;;;;;;;22.82;46.76;101566.09;4935038;28;20135;-75
2022/06/22 06:06:05;;;;;;;1.10;0.50;;;;;;;22.79;46.68;101565.22;4926596;29;20047;-74
2022/06/22 06:08:41;;;;;;;0.98;0.32;;;;;;;22.73;47.01;101565.28;4929077;29;20051;-75
2022/06/22 06:11:16;;;;;;;0.57;0.40;;;;;;;22.67;47.22;101570.59;4932281;29;20118;-74
2022/06/22 06:13:49;;;;;;;0.95;0.55;;;;;;;22.59;47.54;101565.38;4930434;29;20111;-75
2022/06/22 06:16:24;;;;;;;1.17;0.70;;;;;;;22.51;47.21;101567.19;4943797;29;20052;-75
2022/06/22 06:18:57;;;;;;;0.82;0.40;;;;;;;22.48;47.43;101569.84;4931974;29;20130;-73
2022/06/22 06:21:29;;;;;;;;;;;;;;;22.42;47.90;101561.09;4931158;29;20046;-74
2022/06/22 06:24:01;;;;;;;2.97;0.60;;;;;;;22.37;48.19;101564.63;4932017;29;19977;-74
2022/06/22 06:29:28;;;;;;;0.95;0.50;;;;;;;22.29;48.14;101562.97;4931913;29;20175;-73
2022/06/22 06:32:08;;;;;;;1.88;0.60;;;;;;;22.22;48.64;101548.94;4930461;29;20473;-73
2022/06/22 06:34:40;;;;;;;2.47;0.63;;;;;;;22.13;48.36;101551.59;4931313;29;20055;-75
2022/06/22 06:37:17;;;;;;;0.40;0.38;;;;;;;22.06;49.03;101549.84;4930934;29;20497;-73
2022/06/22 06:39:51;;;;;;;1.27;0.70;;;;;;;21.99;49.09;101561.31;4931502;29;20079;-74
2022/06/22 06:42:29;;;;;;;3.33;0.40;;;;;;;21.96;49.59;101555.16;4927126;29;20040;-74
2022/06/22 06:45:00;;;;;;;1.00;0.50;;;;;;;21.87;49.71;101555.22;4930756;29;20476;-74
2022/06/22 06:47:34;;;;;;;0.93;0.60;;;;;;;21.88;49.37;101556.97;4928118;29;20383;-74
2022/06/22 06:50:09;;;;;;;1.23;0.70;;;;;;;21.82;49.58;101561.41;4932710;29;20086;-74
2022/06/22 06:52:47;;;;;;;1.33;0.60;;;;;;;21.75;49.83;101571.94;4929159;29;20106;-75
2022/06/22 06:55:27;;;;;;;1.67;0.55;;;;;;;21.68;50.06;101564.09;4932085;29;20139;-77
2022/06/22 06:58:12;;;;;;;1.20;0.60;;;;;;;21.63;50.57;101572.00;4938259;29;20131;-75
2022/06/22 07:00:42;;;;;;;1.08;0.60;;;;;;;21.59;50.72;101572.03;4932003;29;20054;-74
2022/06/22 07:03:20;;;;;;;1.25;0.65;;;;;;;21.54;50.82;101566.78;4930602;28;20047;-76
2022/06/22 07:05:49;;;;;;;1.95;0.80;;;;;;;21.49;51.15;101572.06;4931034;29;20569;-75
2022/06/22 07:08:21;;;;;;;1.88;0.80;;;;;;;21.41;51.52;101559.78;4931585;29;20047;-74
2022/06/22 07:10:54;;;;;;;2.17;0.80;;;;;;;21.36;51.48;101564.16;4930231;29;20094;-76
2022/06/22 07:13:27;;;;;;;3.33;1.00;;;;;;;21.33;51.79;101557.13;4929946;29;20052;-75
2022/06/22 07:15:59;;;;;;;2.17;0.70;;;;;;;21.29;52.59;101561.53;4937417;28;20114;-74
2022/06/22 07:18:30;;;;;;;2.90;1.10;;;;;;;21.22;52.42;101562.41;4930956;29;20099;-75
2022/06/22 07:21:10;;;;;;;2.60;0.90;;;;;;;21.18;52.43;101562.44;4929473;29;20047;-75
2022/06/22 07:23:45;;;;;;;3.65;0.82;;;;;;;21.15;52.57;101562.44;4931542;29;20194;-74
2022/06/22 07:26:21;;;;;;;2.75;0.88;;;;;;;21.09;52.71;101566.81;4930294;29;20127;-74
2022/06/22 07:28:56;;;;;;;1.38;0.70;;;;;;;21.06;53.07;101564.19;4931641;29;20134;-74
2022/06/22 07:31:28;;;;;;;1.55;0.77;;;;;;;21.03;52.78;101565.97;4937064;29;20050;-74
2022/06/22 07:34:00;;;;;;;;;;;;;;;21.02;52.96;101566.81;4943030;29;20516;-75
2022/06/22 07:36:34;;;;;;;4.22;1.10;;;;;;;20.98;52.47;101568.59;4933136;29;20401;-75
2022/06/22 07:39:12;;;;;;;2.20;1.00;;;;;;;20.96;52.78;101570.34;4927673;29;20058;-74
2022/06/22 07:41:41;;;;;;;1.98;1.10;;;;;;;20.94;53.17;101561.56;4929225;29;20047;-75
2022/06/22 07:44:16;;;;;;;3.53;0.80;;;;;;;20.89;53.46;101563.31;4928274;29;20146;-76
2022/06/22 07:46:51;;;;;;;3.38;1.25;;;;;;;20.86;53.11;101558.06;4933280;29;20166;-74
2022/06/22 07:49:26;;;;;;;2.88;0.98;;;;;;;20.82;53.20;101557.22;4921693;29;20051;-74
2022/06/22 07:51:57;;;;;;;3.20;1.00;;;;;;;20.78;55.30;101560.69;4928906;29;20075;-76
2022/06/22 07:54:32;;;;;;;1.65;0.70;;;;;;;20.73;54.01;101566.81;4932606;29;20402;-75
2022/06/22 07:57:12;;;;;;;2.22;0.95;;;;;;;20.68;53.47;101559.84;4930300;29;20052;-74
2022/06/22 07:59:47;;;;;;;2.72;0.85;;;;;;;20.64;55.30;101563.31;4935627;29;20047;-75
2022/06/22 08:02:18;;;;;;;1.83;1.00;;;;;;;20.59;53.77;101562.47;4932790;29;20102;-74
2022/06/22 08:04:52;;;;;;;1.88;0.70;;;;;;;20.57;54.32;101564.19;4930408;28;20399;-74
2022/06/22 08:07:26;;;;;;;2.53;0.88;;;;;;;20.55;55.08;101558.03;4933630;29;20047;-73
2022/06/22 08:10:04;;;;;;;3.70;1.10;;;;;;;20.53;54.22;101553.66;4932906;29;20056;-76
2022/06/22 08:12:37;;;;;;;2.47;0.90;;;;;;;20.47;56.09;101558.00;4931305;29;20477;-76
2022/06/22 08:15:09;;;;;;;2.47;0.98;;;;;;;20.43;54.01;101555.38;4938380;29;20047;-74
2022/06/22 08:17:41;;;;;;;;;;;;;;;20.42;54.21;101558.88;4929906;29;20055;-74
2022/06/22 08:20:13;;;;;;;4.50;1.23;;;;;;;20.36;55.28;101545.72;4940992;29;19930;-74
2022/06/22 08:22:45;;;;;;;2.92;0.95;;;;;;;20.37;54.18;101547.50;4932300;29;20127;-74
2022/06/22 08:25:18;;;;;;;3.80;1.02;;;;;;;20.33;54.37;101553.59;4932815;29;20051;-74
2022/06/22 08:27:47;;;;;;;2.80;1.17;;;;;;;20.27;53.92;101544.84;4932741;29;20052;-73
2022/06/22 08:30:19;;;;;;;1.73;1.08;;;;;;;20.25;54.06;101548.34;4936521;29;20059;-74
2022/06/22 08:32:55;;;;;;;1.45;0.90;;;;;;;20.24;55.18;101543.94;4935948;29;20056;-74
2022/06/22 08:35:27;;;;;;;2.50;1.00;;;;;;;20.22;55.29;101556.19;4939849;29;20047;-75
2022/06/22 08:38:01;;;;;;;2.23;1.00;;;;;;;20.19;54.83;101557.06;4926773;29;20135;-74
2022/06/22 08:40:41;;;;;;;1.33;0.95;;;;;;;20.17;54.90;101553.56;4933256;29;20286;-75
2022/06/22 08:43:18;;;;;;;4.60;1.15;;;;;;;20.10;54.19;101543.91;4928485;29;20422;-73
2022/06/22 08:46:06;;;;;;;2.78;1.10;;;;;;;20.11;54.50;101552.66;4924046;29;20055;-74
2022/06/22 08:49:01;;;;;;;3.25;1.20;;;;;;;20.08;55.32;101556.16;4927070;29;20047;-73
2022/06/22 08:52:02;;;;;;;3.13;0.93;;;;;;;20.07;54.04;101554.44;4916798;29;20048;-74
2022/06/22 08:54:57;;;;;;;4.05;1.20;;;;;;;20.06;54.36;101552.66;4923399;29;20482;-74
2022/06/22 08:57:47;;;;;;;2.63;0.85;;;;;;;20.04;54.40;101551.78;4922874;29;20509;-74
2022/06/22 09:00:20;;;;;;;2.92;1.30;;;;;;;20.01;54.55;101549.13;4933931;29;20847;-74
2022/06/22 09:03:17;;;;;;;2.83;0.93;;;;;;;19.94;54.74;101543.00;4929339;28;20055;-74
2022/06/22 09:06:13;;;;;;;3.53;1.10;;;;;;;19.92;55.08;101542.09;4930747;29;20047;-75
2022/06/22 09:09:09;;;;;;;4.13;1.63;;;;;;;19.91;55.19;101550.00;4940125;29;20048;-75
2022/06/22 09:11:45;;;;;;;3.25;0.80;;;;;;;19.87;53.93;101560.47;4930259;29;20044;-75
2022/06/22 09:14:45;;;;;;;5.13;1.13;;;;;;;19.87;54.08;101549.09;4924061;29;20505;-73
2022/06/22 09:17:38;;;;;;;3.55;1.00;;;;;;;19.86;54.56;101553.47;4932438;29;20070;-75
2022/06/22 09:20:33;;;;;;;2.10;1.05;;;;;;;19.84;54.49;101555.22;4929242;29;20048;-73
2022/06/22 09:23:10;;;;;;;2.10;0.95;;;;;;;19.83;54.86;101553.44;4936213;29;20442;-73
2022/06/22 09:25:47;;;;;;;4.53;1.70;;;;;;;19.80;55.10;101552.56;4939739;29;20047;-73
2022/06/22 09:28:24;;;;;;;1.63;1.10;;;;;;;19.77;55.34;101553.44;4933589;29;20047;-73
2022/06/22 09:31:19;;;;;;;5.93;1.38;;;;;;;19.75;55.30;101552.56;4928558;29;20044;-73
2022/06/22 09:34:09;;;;;;;2.53;1.00;;;;;;;19.70;55.25;101546.41;4928065;29;20047;-73
2022/06/22 09:37:04;;;;;;;2.13;1.05;;;;;;;19.68;55.87;101556.00;4933378;29;20346;-73
2022/06/22 09:39:47;;;;;;;3.35;1.33;;;;;;;19.66;56.01;101562.97;4932558;29;20410;-73
2022/06/22 09:42:50;;;;;;;2.30;1.10;;;;;;;19.61;56.76;101562.09;4933702;29;20048;-73
2022/06/22 09:45:44;;;;;;;3.08;1.00;;;;;;;19.57;56.68;101555.06;4921409;29;20047;-73
2022/06/22 09:48:38;;;;;;;4.97;1.20;;;;;;;19.54;56.52;101558.56;4924998;29;20044;-72
2022/06/22 09:51:39;;;;;;;2.38;1.00;;;;;;;19.50;56.94;101559.41;4922666;29;20066;-73
2022/06/22 09:57:37;;;;;;;4.13;1.45;;;;;;;19.44;58.80;101564.59;4928700;29;20054;-72
2022/06/22 10:00:10;;;;;;;2.53;1.08;;;;;;;19.39;59.79;101558.47;4920111;29;20099;-72
2022/06/22 10:03:05;;;;;;;2.92;1.20;;;;;;;19.34;59.90;101563.69;4935039;29;20138;-72
2022/06/22 10:05:56;;;;;;;2.13;0.93;;;;;;;19.31;59.77;101554.91;4908483;29;20506;-73
2022/06/22 10:08:38;;;;;;;1.80;0.82;;;;;;;19.24;59.17;101559.22;4911878;29;20048;-73
2022/06/22 10:11:23;;;;;;;3.83;1.38;;;;;;;19.20;59.31;101560.09;4908672;29;20047;-73
2022/06/22 10:14:26;;;;;;;1.67;0.95;;;;;;;19.15;60.16;101551.28;4913725;29;20048;-73
2022/06/22 10:17:15;;;;;;;1.98;0.90;;;;;;;19.14;60.01;101565.28;4907398;29;20411;-73
2022/06/22 10:19:58;;;;;;;3.15;1.13;;;;;;;19.13;59.82;101553.06;4927024;29;20505;-73
2022/06/22 10:22:44;;;;;;;2.28;0.95;;;;;;;19.10;60.57;101553.88;4913206;29;20163;-73
2022/06/22 10:25:39;;;;;;;1.85;0.98;;;;;;;19.08;60.83;101553.03;4904701;29;20440;-72
2022/06/22 10:28:49;;;;;;;3.88;1.38;;;;;;;19.04;61.24;101548.63;4905113;29;20045;-73
2022/06/22 10:31:28;;;;;;;4.60;1.25;;;;;;;18.99;61.12;101542.47;4914916;29;20128;-72
2022/06/22 10:34:30;;;;;;;2.83;1.10;;;;;;;18.92;61.01;101546.78;4905097;29;20059;-72
2022/06/22 10:37:39;;;;;;;1.90;0.90;;;;;;;18.83;61.14;101547.59;4907390;29;20059;-72
2022/06/22 10:46:24;;;;;;;2.88;1.15;;;;;;;18.69;63.75;101549.19;4884013;29;20111;-72
2022/06/22 10:49:15;;;;;;;4.57;1.10;;;;;;;18.67;65.18;101553.53;4902612;29;20108;-72
2022/06/22 10:52:08;;;;;;;3.42;1.10;;;;;;;18.63;64.71;101552.63;4913148;29;20055;-72
2022/06/22 10:55:04;;;;;;;3.20;0.73;;;;;;;18.49;65.64;101532.41;4896296;29;20115;-72
2022/06/22 10:57:54;;;;;;;1.73;1.20;;;;;;;18.49;64.43;101541.13;4903348;29;20059;-73
2022/06/22 11:00:40;;;;;;;4.90;1.23;;;;;;;18.41;67.09;101540.16;4907346;29;20051;-73
2022/06/22 11:03:42;;;;;;;6.43;1.02;;;;;;;18.32;67.45;101540.06;4913649;28;20113;-73
2022/06/22 11:06:45;;;;;;;5.28;1.23;;;;;;;18.26;66.58;101540.91;4926306;29;20120;-72
2022/06/22 11:09:34;;;;;;;3.08;1.20;;;;;;;18.19;67.17;101539.97;4935562;29;20052;-72
2022/06/22 11:12:33;;;;;;;2.55;1.20;;;;;;;18.08;66.89;101541.59;4922707;29;20052;-72
2022/06/22 11:15:27;;;;;;;2.88;1.17;;;;;;;18.04;67.31;101545.03;4921933;29;20055;-73
2022/06/22 11:18:14;;;;;;;2.50;1.15;;;;;;;17.99;67.65;101544.09;4901258;29;20046;-73
2022/06/22 11:21:02;;;;;;;3.40;1.38;;;;;;;17.95;67.83;101542.28;4925736;29;20523;-73
2022/06/22 11:23:52;;;;;;;2.25;0.88;;;;;;;17.88;70.57;101538.72;4924060;29;20047;-73
2022/06/22 11:32:41;;;;;;;1.95;0.93;;;;;;;17.67;69.89;101523.59;4938745;29;20074;-73
2022/06/22 11:35:57;;;;;;;1.42;1.00;;;;;;;17.62;70.71;101521.81;4936592;29;20622;-74
2022/06/22 11:38:55;;;;;;;3.13;1.00;;;;;;;17.59;70.40;101523.53;4887121;29;20053;-73
2022/06/22 11:41:41;;;;;;;5.47;0.90;;;;;;;17.56;72.55;101519.97;4885086;29;20104;-74
2022/06/22 11:44:32;;;;;;;2.85;0.90;;;;;;;17.48;72.08;101527.72;4914027;29;20638;-74
2022/06/22 11:47:08;;;;;;;4.53;1.23;;;;;;;17.47;71.36;101531.19;4925633;29;20517;-74
2022/06/22 11:49:48;;;;;;;1.45;1.08;;;;;;;17.46;70.26;101532.06;4937055;29;20464;-73
2022/06/22 11:52:50;;;;;;;1.50;0.95;;;;;;;17.46;70.64;101528.56;4931075;29;20048;-73
2022/06/22 11:55:25;;;;;;;1.88;0.80;;;;;;;17.42;70.63;101530.25;4930822;29;20106;-73
2022/06/22 11:58:31;;;;;;;2.88;0.80;;;;;;;17.42;72.19;101538.09;4930407;29;20421;-74
2022/06/22 12:01:25;;;;;;;2.15;0.93;;;;;;;17.37;71.19;101527.56;4926839;29;20043;-74
2022/06/22 12:04:13;;;;;;;3.65;1.00;;;;;;;17.31;73.53;101530.09;4933171;28;20785;-74
2022/06/22 12:06:54;;;;;;;3.45;1.17;;;;;;;17.29;73.68;101531.81;4944138;29;20048;-74
2022/06/22 12:09:44;;;;;;;2.05;1.02;;;;;;;17.26;74.24;101529.16;4930288;29;20134;-73
2022/06/22 12:12:56;;;;;;;3.38;1.05;;;;;;;17.26;73.21;101530.91;4922551;29;20055;-73
2022/06/22 12:15:45;;;;;;;5.32;1.15;;;;;;;17.26;72.87;101530.91;4917885;29;20051;-73
2022/06/22 12:18:25;;;;;;;2.80;1.10;;;;;;;17.25;72.44;101534.34;4929347;29;20047;-73
2022/06/22 12:21:11;;;;;;;4.32;1.20;;;;;;;17.24;72.92;101537.84;4936326;29;20043;-73
2022/06/22 12:23:48;;;;;;;5.40;1.27;;;;;;;17.22;72.41;101536.94;4922145;29;20047;-73
2022/06/22 12:26:26;;;;;;;2.58;1.00;;;;;;;17.18;71.79;101530.81;4920740;29;20044;-73
2022/06/22 12:29:23;;;;;;;1.75;1.00;;;;;;;17.12;73.29;101522.84;4918501;29;20045;-73
2022/06/22 12:31:56;;;;;;;4.88;1.15;;;;;;;17.02;74.25;101524.47;4915538;29;20052;-73
2022/06/22 12:34:33;;;;;;;2.65;1.33;;;;;;;16.95;75.27;101533.94;4931389;29;20143;-73
2022/06/22 12:37:08;;;;;;;3.10;1.08;;;;;;;16.92;75.37;101528.66;4931366;29;20063;-74
2022/06/22 12:39:49;;;;;;;2.25;1.15;;;;;;;16.93;74.82;101527.81;4932684;29;20107;-73
2022/06/22 12:42:39;;;;;;;2.42;1.05;;;;;;;16.93;74.09;101526.94;4932532;29;20454;-73
2022/06/22 12:45:27;;;;;;;2.38;1.10;;;;;;;16.91;74.22;101529.50;4943458;29;20550;-72
2022/06/22 12:48:24;;;;;;;3.60;0.93;;;;;;;16.88;73.56;101529.47;4934760;29;20047;-72